createdAt,value
2022-10-06T00:04:14.261Z,292.65
2022-10-06T00:09:21.457Z,293.96
2022-10-06T00:14:28.680Z,291.84
2022-10-06T00:19:35.856Z,291.18
2022-10-06T00:24:43.031Z,291.73
2022-10-06T00:29:50.181Z,291.56
2022-10-06T00:34:57.442Z,291.14
2022-10-06T00:40:04.688Z,291.72
2022-10-06T00:45:11.834Z,291.78
2022-10-06T00:50:19.050Z,291.23
2022-10-06T00:55:26.285Z,291.74
2022-10-06T01:00:33.409Z,291.16
2022-10-06T01:05:40.661Z,290.58
2022-10-06T01:10:47.890Z,289.82
2022-10-06T01:15:55.126Z,289.93
2022-10-06T01:21:02.289Z,289.97
2022-10-06T01:26:09.536Z,291.17
2022-10-06T01:31:16.784Z,291.17
2022-10-06T01:36:23.971Z,291.42
2022-10-06T01:41:31.241Z,291.00
2022-10-06T01:46:38.524Z,290.30
2022-10-06T01:51:45.667Z,290.23
2022-10-06T01:56:52.984Z,289.60
2022-10-06T02:02:00.210Z,290.28
2022-10-06T02:07:07.380Z,290.19
2022-10-06T02:12:14.676Z,289.38
2022-10-06T02:17:21.848Z,289.75
2022-10-06T02:22:29.883Z,289.37
2022-10-06T02:27:37.137Z,288.47
2022-10-06T02:32:44.337Z,288.25
2022-10-06T02:37:51.493Z,288.51
2022-10-06T02:42:58.707Z,287.43
2022-10-06T02:48:07.215Z,287.11
2022-10-06T02:53:14.424Z,287.29
2022-10-06T02:58:21.646Z,287.15
2022-10-06T03:03:28.828Z,286.53
2022-10-06T03:08:36.046Z,285.77
2022-10-06T03:13:43.225Z,285.29
2022-10-06T03:18:50.408Z,285.11
2022-10-06T03:23:57.566Z,285.12
2022-10-06T03:29:09.194Z,284.52
2022-10-06T03:34:12.045Z,284.02
2022-10-06T03:39:19.250Z,283.02
2022-10-06T03:44:26.488Z,283.03
2022-10-06T03:49:33.676Z,282.87
2022-10-06T03:54:40.877Z,281.93
2022-10-06T03:59:49.604Z,281.52
2022-10-06T04:04:56.825Z,280.73
2022-10-06T04:10:04.028Z,279.99
2022-10-06T04:15:11.311Z,280.29
2022-10-06T04:20:18.493Z,279.61
2022-10-06T04:25:25.859Z,279.71
2022-10-06T04:30:33.043Z,279.66
2022-10-06T04:35:40.209Z,279.09
2022-10-06T04:40:47.457Z,278.36
2022-10-06T04:45:54.804Z,278.06
2022-10-06T04:51:01.873Z,278.17
2022-10-06T04:56:09.070Z,277.15
2022-10-06T05:01:16.419Z,276.21
2022-10-06T05:06:23.485Z,275.48
2022-10-06T05:11:30.684Z,274.72
2022-10-06T05:16:38.176Z,274.64
2022-10-06T05:21:45.133Z,275.01
2022-10-06T05:26:52.321Z,274.56
2022-10-06T05:31:59.665Z,273.99
2022-10-06T05:37:06.707Z,272.47
2022-10-06T05:42:13.972Z,271.74
2022-10-06T05:47:21.181Z,271.93
2022-10-06T05:52:28.334Z,271.22
2022-10-06T05:57:35.562Z,269.98
2022-10-06T06:02:42.877Z,269.10
2022-10-06T06:07:49.892Z,268.99
2022-10-06T06:12:57.139Z,268.86
2022-10-06T06:18:04.431Z,268.38
2022-10-06T06:23:11.657Z,268.20
2022-10-06T06:28:18.919Z,268.19
2022-10-06T06:33:26.120Z,266.82
2022-10-06T06:38:33.651Z,266.58
2022-10-06T06:43:40.912Z,265.83
2022-10-06T06:48:48.122Z,265.98
2022-10-06T06:53:55.313Z,265.68
2022-10-06T06:59:04.490Z,266.17
2022-10-06T07:04:11.671Z,265.86
2022-10-06T07:09:18.873Z,266.10
2022-10-06T07:14:26.086Z,265.45
2022-10-06T07:19:33.305Z,265.13
2022-10-06T07:24:40.572Z,265.09
2022-10-06T07:29:57.608Z,265.05
2022-10-06T07:35:02.818Z,264.75
2022-10-06T07:40:09.870Z,264.93
2022-10-06T07:45:17.057Z,265.14
2022-10-06T07:50:24.264Z,266.14
2022-10-06T07:55:32.305Z,266.12
2022-10-06T08:00:39.462Z,265.78
2022-10-06T08:05:46.754Z,265.68
2022-10-06T08:10:53.978Z,266.29
2022-10-06T08:16:01.281Z,266.34
2022-10-06T08:21:08.473Z,266.96
2022-10-06T08:26:15.646Z,267.06
2022-10-06T08:31:22.886Z,266.80
2022-10-06T08:36:32.417Z,267.67
2022-10-06T08:41:37.216Z,267.04
2022-10-06T08:46:44.392Z,267.15
2022-10-06T08:51:51.633Z,267.48
2022-10-06T08:56:58.747Z,266.77
2022-10-06T09:02:06.029Z,266.81
2022-10-06T09:07:13.199Z,266.77
2022-10-06T09:12:20.369Z,267.69
2022-10-06T09:17:27.566Z,267.96
2022-10-06T09:22:34.763Z,267.12
2022-10-06T09:27:41.954Z,267.09
2022-10-06T09:32:49.153Z,267.30
2022-10-06T09:37:56.376Z,267.38
2022-10-06T09:43:03.605Z,267.68
2022-10-06T09:48:10.849Z,267.84
2022-10-06T09:53:18.140Z,267.51
2022-10-06T09:58:25.508Z,267.52
2022-10-06T10:03:32.723Z,267.78
2022-10-06T10:08:39.986Z,268.61
2022-10-06T10:13:47.190Z,269.23
2022-10-06T10:18:54.422Z,269.35
2022-10-06T10:24:01.701Z,269.67
2022-10-06T10:29:08.857Z,269.18
2022-10-06T10:34:25.885Z,270.16
2022-10-06T10:39:23.281Z,269.76
2022-10-06T10:44:30.532Z,269.92
2022-10-06T10:49:37.773Z,270.36
2022-10-06T10:54:45.052Z,269.73
2022-10-06T10:59:52.239Z,269.75
2022-10-06T11:04:59.872Z,270.61
2022-10-06T11:10:06.750Z,270.55
2022-10-06T11:15:13.973Z,271.29
2022-10-06T11:20:21.204Z,271.62
2022-10-06T11:25:30.119Z,272.28
2022-10-06T11:30:35.614Z,272.93
2022-10-06T11:35:42.803Z,273.14
2022-10-06T11:40:50.022Z,273.83
2022-10-06T11:45:57.189Z,273.67
2022-10-06T11:51:04.373Z,273.87
2022-10-06T11:56:11.626Z,274.20
2022-10-06T12:01:18.734Z,275.27
2022-10-06T12:06:25.938Z,275.65
2022-10-06T12:11:33.135Z,275.33
2022-10-06T12:17:11.526Z,276.03
2022-10-06T12:21:47.963Z,276.40
2022-10-06T12:26:55.293Z,277.14
2022-10-06T12:32:02.471Z,276.26
2022-10-06T12:37:09.663Z,277.29
2022-10-06T12:42:16.949Z,276.79
2022-10-06T12:47:24.173Z,276.80
2022-10-06T12:52:31.435Z,277.41
2022-10-06T12:57:38.643Z,277.45
2022-10-06T13:02:45.842Z,278.02
2022-10-06T13:07:52.947Z,277.97
2022-10-06T13:13:00.351Z,278.28
2022-10-06T13:18:07.749Z,278.49
2022-10-06T13:23:14.990Z,278.54
2022-10-06T13:28:22.660Z,279.81
2022-10-06T13:33:29.654Z,279.75
2022-10-06T13:38:36.886Z,279.92
2022-10-06T13:43:44.153Z,280.57
2022-10-06T13:48:51.376Z,280.47
2022-10-06T13:53:58.589Z,280.71
2022-10-06T13:59:05.824Z,281.34
2022-10-06T14:04:13.036Z,281.34
2022-10-06T14:09:20.301Z,281.13
2022-10-06T14:14:27.642Z,280.96
2022-10-06T14:19:34.856Z,281.35
2022-10-06T14:24:42.067Z,281.97
2022-10-06T14:29:52.812Z,281.74
2022-10-06T14:35:00.125Z,281.99
2022-10-06T14:40:11.816Z,282.05
2022-10-06T14:45:14.689Z,282.58
2022-10-06T14:50:21.830Z,282.87
2022-10-06T14:55:29.030Z,282.38
2022-10-06T15:00:36.280Z,282.95
2022-10-06T15:05:43.442Z,283.27
2022-10-06T15:10:50.652Z,283.47
2022-10-06T15:15:57.945Z,283.15
2022-10-06T15:21:05.583Z,283.67
2022-10-06T15:26:13.335Z,283.83
2022-10-06T15:31:20.632Z,283.82
2022-10-06T15:36:27.789Z,283.95
2022-10-06T15:41:35.013Z,284.09
2022-10-06T15:46:42.318Z,284.21
2022-10-06T15:51:49.402Z,284.17
2022-10-06T15:56:56.676Z,284.29
2022-10-06T16:02:04.150Z,284.20
2022-10-06T16:07:11.502Z,283.93
2022-10-06T16:12:18.739Z,283.92
2022-10-06T16:17:26.002Z,283.91
2022-10-06T16:22:33.220Z,283.59
2022-10-06T16:27:40.393Z,283.50
2022-10-06T16:32:47.679Z,283.57
2022-10-06T16:37:54.885Z,283.37
2022-10-06T16:43:02.059Z,283.40
2022-10-06T16:48:09.305Z,282.99
2022-10-06T16:53:17.051Z,282.85
2022-10-06T16:58:23.747Z,283.02
2022-10-06T17:03:31.130Z,282.69
2022-10-06T17:08:38.188Z,282.95
2022-10-06T17:13:45.402Z,283.03
2022-10-06T17:18:52.623Z,282.79
2022-10-06T17:24:00.405Z,281.72
2022-10-06T17:29:07.619Z,281.63
2022-10-06T17:34:19.537Z,281.40
2022-10-06T17:39:22.170Z,280.76
2022-10-06T17:44:29.556Z,280.90
2022-10-06T17:49:36.864Z,280.76
2022-10-06T17:54:44.030Z,280.98
2022-10-06T17:59:51.556Z,280.41
2022-10-06T18:04:59.021Z,280.62
2022-10-06T18:10:06.211Z,280.80
2022-10-06T18:15:13.794Z,280.76
2022-10-06T18:20:21.427Z,280.79
2022-10-06T18:25:28.805Z,280.67
2022-10-06T18:30:36.069Z,280.68
2022-10-06T18:40:50.553Z,280.81
2022-10-06T18:45:59.093Z,281.24
2022-10-06T18:51:06.413Z,280.90
2022-10-06T18:56:13.563Z,280.89
2022-10-06T19:01:21.287Z,280.90
2022-10-06T19:06:28.725Z,281.18
2022-10-06T19:11:37.338Z,280.96
2022-10-06T19:16:45.066Z,281.14
2022-10-06T19:21:52.316Z,280.90
2022-10-06T19:26:59.877Z,280.96
2022-10-06T19:32:07.493Z,281.04
2022-10-06T19:37:15.137Z,281.10
2022-10-06T19:42:22.435Z,280.58
2022-10-06T19:47:29.922Z,280.88
2022-10-06T19:52:37.565Z,280.84
2022-10-06T19:57:45.480Z,280.17
2022-10-06T20:02:52.476Z,280.39
2022-10-06T20:07:59.689Z,280.21
2022-10-06T20:13:06.813Z,280.36
2022-10-06T20:18:14.037Z,280.46
2022-10-06T20:23:21.320Z,280.54
2022-10-06T20:28:28.533Z,280.12
2022-10-06T20:33:35.726Z,280.33
2022-10-06T20:38:42.927Z,280.50
2022-10-06T20:43:50.106Z,281.04
2022-10-06T20:48:57.352Z,280.72
2022-10-06T20:54:04.568Z,281.25
2022-10-06T20:59:11.674Z,281.78
2022-10-06T21:04:33.832Z,281.55
2022-10-06T21:09:41.144Z,281.53
2022-10-06T21:14:48.332Z,281.53
2022-10-06T21:19:55.609Z,281.70
2022-10-06T21:25:02.879Z,281.98
2022-10-06T21:30:10.160Z,282.07
2022-10-06T21:35:17.448Z,282.48
2022-10-06T21:40:24.724Z,282.30
2022-10-06T21:45:33.166Z,282.88
2022-10-06T21:50:39.272Z,283.63
2022-10-06T21:55:46.800Z,284.01
2022-10-06T22:00:58.063Z,284.33
2022-10-06T22:06:01.145Z,284.57
2022-10-06T22:11:08.375Z,284.83
2022-10-06T22:16:15.685Z,284.78
2022-10-06T22:21:22.864Z,284.83
2022-10-06T22:26:30.143Z,285.23
2022-10-06T22:31:37.371Z,285.68
2022-10-06T22:36:44.681Z,286.22
2022-10-06T22:41:51.950Z,286.68
2022-10-06T22:46:59.318Z,287.52
2022-10-06T22:52:06.483Z,288.24
2022-10-06T22:57:13.732Z,288.19
2022-10-06T23:02:20.958Z,287.72
2022-10-06T23:07:28.155Z,287.45
2022-10-06T23:12:35.452Z,287.86
2022-10-06T23:17:42.925Z,287.52
2022-10-06T23:22:49.840Z,287.94
2022-10-06T23:27:57.166Z,287.62
2022-10-06T23:33:04.350Z,287.51
2022-10-06T23:38:11.627Z,287.37
2022-10-06T23:43:18.946Z,287.25
2022-10-06T23:48:26.241Z,287.29
2022-10-06T23:53:33.478Z,287.66
2022-10-06T23:58:40.734Z,287.72
